Time;durP1;ratioP1;P1;durP2;ratioP2;P2;SDS_P1;SDS_P2;PMS_P1;PMS_P2;Temp;Humidity;BMP_temperature;BMP_pressure;BME280_temperature;BME280_humidity;BME280_pressure;Samples;Min_cycle;Max_cycle;Signal;HPM_P1;HPM_P2
2022/08/29 00:02:26;;;;;;;;;;;13.90;99.90;;;;;;5106626;27;19930;-51
2022/08/29 00:05:07;;;;;;;;;;;13.90;99.90;;;;;;5106346;27;19919;-53
2022/08/29 00:07:47;;;;;;;;;;;13.90;99.90;;;;;;5108911;27;20294;-54
2022/08/29 00:10:28;;;;;;;;;;;13.80;99.90;;;;;;5105267;27;20110;-53
2022/08/29 00:13:10;;;;;;;;;;;13.70;99.90;;;;;;5126913;27;19918;-52
2022/08/29 00:15:50;;;;;;;;;;;13.70;99.90;;;;;;5126357;27;19922;-53
2022/08/29 00:18:30;;;;;;;;;;;13.50;99.90;;;;;;5126275;27;20186;-54
2022/08/29 00:21:10;;;;;;;;;;;13.40;99.90;;;;;;5126562;27;19929;-53
2022/08/29 00:23:50;;;;;;;;;;;13.30;99.90;;;;;;5126652;27;20198;-52
2022/08/29 00:26:29;;;;;;;;;;;13.20;99.90;;;;;;5127253;27;19911;-52
2022/08/29 00:29:09;;;;;;;;;;;13.20;99.90;;;;;;5105978;27;19926;-52
2022/08/29 00:31:49;;;;;;;;;;;13.20;99.90;;;;;;5126355;27;19918;-53
2022/08/29 00:34:29;;;;;;;;;;;13.20;99.90;;;;;;5105906;27;19945;-53
2022/08/29 00:37:09;;;;;;;;;;;13.10;99.90;;;;;;5115327;27;19959;-53
2022/08/29 00:39:49;;;;;;;;;;;13.10;99.90;;;;;;5122256;27;19926;-54
2022/08/29 00:42:30;;;;;;;;;;;13.10;99.90;;;;;;5123156;27;19916;-53
2022/08/29 00:45:11;;;;;;;;;;;13.10;99.90;;;;;;5125844;27;19918;-53
2022/08/29 00:47:53;;;;;;;;;;;13.20;99.90;;;;;;5146023;27;19921;-52
2022/08/29 00:50:34;;;;;;;;;;;13.30;99.90;;;;;;5125792;27;19919;-52
2022/08/29 00:53:16;;;;;;;;;;;13.40;99.90;;;;;;5126580;27;19911;-53
2022/08/29 00:55:57;;;;;;;;;;;13.40;99.90;;;;;;5125195;27;20177;-53
2022/08/29 00:58:39;;;;;;;;;;;13.50;99.90;;;;;;5127092;27;19934;-52
2022/08/29 01:01:21;;;;;;;;;;;13.50;99.90;;;;;;5126905;27;19911;-52
2022/08/29 01:04:02;;;;;;;;;;;13.60;99.90;;;;;;5086001;28;20348;-53
2022/08/29 01:06:42;;;;;;;;;;;13.60;99.90;;;;;;5098706;27;20422;-53
2022/08/29 01:09:21;;;;;;;;;;;13.60;99.90;;;;;;5126491;27;19912;-53
2022/08/29 01:12:16;;;;;;;;;;;13.60;99.90;;;;;;5126874;27;19918;-52
2022/08/29 01:15:00;;;;;;;;;;;13.70;99.90;;;;;;5126737;27;19916;-51
2022/08/29 01:17:43;;;;;;;;;;;13.70;99.90;;;;;;5111397;27;19923;-53
2022/08/29 01:20:27;;;;;;;;;;;13.70;99.90;;;;;;5127009;27;19912;-52
2022/08/29 01:23:13;;;;;;;;;;;13.80;99.90;;;;;;5126705;27;19953;-52
2022/08/29 01:25:54;;;;;;;;;;;13.80;99.90;;;;;;5126015;27;19918;-52
2022/08/29 01:28:37;;;;;;;;;;;13.80;99.90;;;;;;5126880;27;19918;-52
2022/08/29 01:31:19;;;;;;;;;;;13.80;99.90;;;;;;5127057;27;19915;-53
2022/08/29 01:33:59;;;;;;;;;;;13.80;99.90;;;;;;5127093;27;19918;-53
2022/08/29 01:36:41;;;;;;;;;;;13.90;99.90;;;;;;5119549;27;19912;-53
2022/08/29 01:39:25;;;;;;;;;;;13.90;99.90;;;;;;5127028;27;19929;-52
2022/08/29 01:42:08;;;;;;;;;;;13.80;99.90;;;;;;5127132;27;19918;-53
2022/08/29 01:44:49;;;;;;;;;;;13.80;99.90;;;;;;5126470;27;19918;-52
2022/08/29 01:47:33;;;;;;;;;;;13.80;99.90;;;;;;5147297;27;19915;-52
2022/08/29 01:50:14;;;;;;;;;;;13.80;99.90;;;;;;5126535;27;19958;-53
2022/08/29 01:52:54;;;;;;;;;;;13.70;99.90;;;;;;5126831;27;19911;-54
2022/08/29 01:55:34;;;;;;;;;;;13.60;99.90;;;;;;5119227;27;19918;-53
2022/08/29 01:58:15;;;;;;;;;;;13.60;99.90;;;;;;5147582;27;19921;-52
2022/08/29 02:00:55;;;;;;;;;;;13.50;99.90;;;;;;5126161;27;19915;-53
2022/08/29 02:03:35;;;;;;;;;;;13.50;99.90;;;;;;5126226;27;19926;-53
2022/08/29 02:06:15;;;;;;;;;;;13.40;99.90;;;;;;5122818;27;19916;-52
2022/08/29 02:08:55;;;;;;;;;;;13.40;99.90;;;;;;5126811;27;19912;-52
2022/08/29 02:11:35;;;;;;;;;;;13.30;99.90;;;;;;5126367;27;19916;-53
2022/08/29 02:14:15;;;;;;;;;;;13.30;99.90;;;;;;5126883;27;20403;-52
2022/08/29 02:16:55;;;;;;;;;;;13.30;99.90;;;;;;5117113;27;19918;-52
2022/08/29 02:19:35;;;;;;;;;;;13.20;99.90;;;;;;5126010;27;19912;-53
2022/08/29 02:22:16;;;;;;;;;;;13.10;99.90;;;;;;5126563;27;20296;-51
2022/08/29 02:24:55;;;;;;;;;;;13.00;99.90;;;;;;5106491;27;19926;-53
2022/08/29 02:27:35;;;;;;;;;;;12.80;99.90;;;;;;5128470;27;20141;-52
2022/08/29 02:30:15;;;;;;;;;;;12.60;99.90;;;;;;5105717;27;19945;-53
2022/08/29 02:32:55;;;;;;;;;;;12.60;99.90;;;;;;5126484;27;19912;-53
2022/08/29 02:35:35;;;;;;;;;;;12.50;99.90;;;;;;5126477;27;19938;-52
2022/08/29 02:38:16;;;;;;;;;;;12.40;99.90;;;;;;5134014;27;19911;-53
2022/08/29 02:40:56;;;;;;;;;;;12.30;99.90;;;;;;5126552;27;19911;-52
2022/08/29 02:43:36;;;;;;;;;;;12.30;99.90;;;;;;5126488;27;19918;-53
2022/08/29 02:46:17;;;;;;;;;;;12.20;99.90;;;;;;5126269;27;20278;-53
2022/08/29 02:48:57;;;;;;;;;;;12.10;99.90;;;;;;5126675;27;19916;-52
2022/08/29 02:51:37;;;;;;;;;;;12.00;99.90;;;;;;5105857;27;20339;-54
2022/08/29 02:54:17;;;;;;;;;;;12.10;99.90;;;;;;5126720;27;19933;-53
2022/08/29 02:56:57;;;;;;;;;;;12.10;99.90;;;;;;5116624;27;19912;-52
2022/08/29 02:59:37;;;;;;;;;;;12.10;99.90;;;;;;5125872;27;19912;-53
2022/08/29 03:02:16;;;;;;;;;;;12.10;99.90;;;;;;5126136;27;19911;-53
2022/08/29 03:04:58;;;;;;;;;;;12.10;99.90;;;;;;5106176;27;19918;-53
2022/08/29 03:07:39;;;;;;;;;;;12.10;99.90;;;;;;5097311;27;19912;-52
2022/08/29 03:10:19;;;;;;;;;;;12.00;99.90;;;;;;5126088;27;19945;-54
2022/08/29 03:12:59;;;;;;;;;;;12.10;99.90;;;;;;5126680;27;19911;-54
2022/08/29 03:15:39;;;;;;;;;;;12.00;99.90;;;;;;5126549;27;19912;-53
2022/08/29 03:18:18;;;;;;;;;;;12.00;99.90;;;;;;5106416;27;20191;-52
2022/08/29 03:20:59;;;;;;;;;;;11.90;99.90;;;;;;5105705;27;19953;-52
2022/08/29 03:23:40;;;;;;;;;;;11.80;99.90;;;;;;5126600;27;20381;-53
2022/08/29 03:26:20;;;;;;;;;;;11.70;99.90;;;;;;5122517;27;19938;-51
2022/08/29 03:28:59;;;;;;;;;;;11.70;99.90;;;;;;5105377;27;19916;-53
2022/08/29 03:31:39;;;;;;;;;;;11.60;99.90;;;;;;5126599;27;19912;-53
2022/08/29 03:34:19;;;;;;;;;;;11.50;99.90;;;;;;5085660;28;19917;-53
2022/08/29 03:36:59;;;;;;;;;;;11.40;99.90;;;;;;5116320;27;20267;-53
2022/08/29 03:39:39;;;;;;;;;;;11.50;99.90;;;;;;5126765;27;19911;-52
2022/08/29 03:42:19;;;;;;;;;;;11.60;99.90;;;;;;5126641;27;19912;-53
2022/08/29 03:44:58;;;;;;;;;;;11.70;99.90;;;;;;5127293;27;19918;-53
2022/08/29 03:47:38;;;;;;;;;;;11.80;99.90;;;;;;5110542;27;19918;-52
2022/08/29 03:50:19;;;;;;;;;;;11.70;99.90;;;;;;5126370;27;20339;-53
2022/08/29 03:52:59;;;;;;;;;;;11.60;99.90;;;;;;5126682;27;19915;-52
2022/08/29 03:55:39;;;;;;;;;;;11.50;99.90;;;;;;5123573;27;19912;-52
2022/08/29 03:58:19;;;;;;;;;;;11.40;99.90;;;;;;5126203;27;19915;-54
2022/08/29 04:00:59;;;;;;;;;;;11.40;99.90;;;;;;5126233;27;20255;-54
2022/08/29 04:03:39;;;;;;;;;;;11.40;99.90;;;;;;5104570;27;19912;-54
2022/08/29 04:06:18;;;;;;;;;;;11.40;99.90;;;;;;5122488;27;19912;-53
2022/08/29 04:08:58;;;;;;;;;;;11.30;99.90;;;;;;5126575;27;19912;-53
2022/08/29 04:11:38;;;;;;;;;;;11.40;99.90;;;;;;5147361;27;19953;-54
2022/08/29 04:14:19;;;;;;;;;;;11.40;99.90;;;;;;5106412;27;20451;-53
2022/08/29 04:17:00;;;;;;;;;;;11.30;99.90;;;;;;5112943;27;19916;-52
2022/08/29 04:19:41;;;;;;;;;;;11.20;99.90;;;;;;5105372;27;19916;-53
2022/08/29 04:22:21;;;;;;;;;;;11.10;99.90;;;;;;5125924;27;19911;-54
2022/08/29 04:25:01;;;;;;;;;;;11.10;99.90;;;;;;5125727;27;19916;-53
2022/08/29 04:27:41;;;;;;;;;;;11.10;99.90;;;;;;5109702;27;19912;-53
2022/08/29 04:30:23;;;;;;;;;;;11.10;99.90;;;;;;5126017;27;20397;-54
2022/08/29 04:33:03;;;;;;;;;;;11.10;99.90;;;;;;5126592;27;19918;-53
2022/08/29 04:35:43;;;;;;;;;;;11.10;99.90;;;;;;5126880;27;19912;-53
2022/08/29 04:38:23;;;;;;;;;;;11.20;99.90;;;;;;5115930;27;20408;-52
2022/08/29 04:41:05;;;;;;;;;;;11.20;99.90;;;;;;5112610;27;19916;-52
2022/08/29 04:43:47;;;;;;;;;;;11.30;99.90;;;;;;5097826;27;20177;-52
2022/08/29 04:46:27;;;;;;;;;;;11.20;99.90;;;;;;5118217;27;20096;-53
2022/08/29 04:49:07;;;;;;;;;;;11.30;99.90;;;;;;5117714;27;19938;-52
2022/08/29 04:51:47;;;;;;;;;;;11.30;99.90;;;;;;5125917;27;19912;-53
2022/08/29 04:54:27;;;;;;;;;;;11.40;99.90;;;;;;5077693;27;19935;-54
2022/08/29 04:57:07;;;;;;;;;;;11.50;99.90;;;;;;5112566;27;19922;-54
2022/08/29 04:59:52;;;;;;;;;;;11.60;99.90;;;;;;5105105;27;19920;-53
2022/08/29 05:02:32;;;;;;;;;;;11.70;99.90;;;;;;5126334;27;19919;-53
2022/08/29 05:05:13;;;;;;;;;;;11.70;99.90;;;;;;5105974;27;19942;-52
2022/08/29 05:07:54;;;;;;;;;;;11.80;99.90;;;;;;5125768;27;20304;-52
2022/08/29 05:10:34;;;;;;;;;;;11.80;99.90;;;;;;5126307;27;20319;-52
2022/08/29 05:13:24;;;;;;;;;;;12.00;99.90;;;;;;5126604;27;19934;-52
2022/08/29 05:16:06;;;;;;;;;;;12.10;99.90;;;;;;5124370;27;19918;-54
2022/08/29 05:18:46;;;;;;;;;;;12.10;99.90;;;;;;5105966;27;19920;-54
2022/08/29 05:21:26;;;;;;;;;;;12.30;99.90;;;;;;5106309;27;20407;-54
2022/08/29 05:24:08;;;;;;;;;;;12.40;99.90;;;;;;5126682;27;19930;-53
2022/08/29 05:26:49;;;;;;;;;;;12.50;99.90;;;;;;5105628;27;19912;-53
2022/08/29 05:29:29;;;;;;;;;;;12.50;99.90;;;;;;5105607;27;19912;-53
2022/08/29 05:32:09;;;;;;;;;;;12.60;99.90;;;;;;5126758;27;19912;-53
2022/08/29 05:34:50;;;;;;;;;;;12.70;99.90;;;;;;5126175;27;20274;-52
2022/08/29 05:37:29;;;;;;;;;;;12.70;99.90;;;;;;5106083;27;19912;-53
2022/08/29 05:40:10;;;;;;;;;;;12.80;99.90;;;;;;5126151;27;19918;-54
2022/08/29 05:42:49;;;;;;;;;;;12.80;99.90;;;;;;5126646;27;19918;-52
2022/08/29 05:45:29;;;;;;;;;;;13.00;99.90;;;;;;5126705;27;19938;-53
2022/08/29 05:48:09;;;;;;;;;;;13.10;99.90;;;;;;5105737;27;20288;-53
2022/08/29 05:50:49;;;;;;;;;;;13.20;99.90;;;;;;5105490;27;19912;-53
2022/08/29 05:53:28;;;;;;;;;;;13.30;99.90;;;;;;5125767;27;19918;-53
2022/08/29 05:56:08;;;;;;;;;;;13.40;99.90;;;;;;5104897;27;19949;-53
2022/08/29 05:58:48;;;;;;;;;;;13.50;99.90;;;;;;5104866;27;19961;-53
2022/08/29 06:01:29;;;;;;;;;;;13.70;99.90;;;;;;5125271;27;19918;-53
2022/08/29 06:04:09;;;;;;;;;;;13.80;99.90;;;;;;5125331;27;19915;-52
2022/08/29 06:06:50;;;;;;;;;;;14.00;99.90;;;;;;5124419;27;19922;-53
2022/08/29 06:09:31;;;;;;;;;;;14.00;99.90;;;;;;5125039;27;19918;-52
2022/08/29 06:12:11;;;;;;;;;;;14.00;99.90;;;;;;5126238;27;19912;-53
2022/08/29 06:14:52;;;;;;;;;;;14.10;99.90;;;;;;5124662;27;20285;-52
2022/08/29 06:17:32;;;;;;;;;;;14.10;99.90;;;;;;5109101;27;19915;-53
2022/08/29 06:20:12;;;;;;;;;;;14.10;99.90;;;;;;5124337;27;19912;-52
2022/08/29 06:22:51;;;;;;;;;;;14.20;99.90;;;;;;5127427;27;19912;-51
2022/08/29 06:25:31;;;;;;;;;;;14.40;99.90;;;;;;5126726;27;19922;-52
2022/08/29 06:28:11;;;;;;;;;;;14.60;99.90;;;;;;5127424;27;19978;-52
2022/08/29 06:30:51;;;;;;;;;;;14.90;99.90;;;;;;5147635;27;20384;-52
2022/08/29 06:33:31;;;;;;;;;;;15.20;99.90;;;;;;5126610;27;19916;-52
2022/08/29 06:36:11;;;;;;;;;;;15.50;99.90;;;;;;5123851;27;19912;-51
2022/08/29 06:38:52;;;;;;;;;;;15.60;99.90;;;;;;5127144;27;20276;-51
2022/08/29 06:41:32;;;;;;;;;;;15.80;99.90;;;;;;5126369;27;20284;-52
2022/08/29 06:44:13;;;;;;;;;;;15.90;99.90;;;;;;5106578;27;20335;-53
2022/08/29 06:46:53;;;;;;;;;;;16.00;99.90;;;;;;5123801;27;19935;-53
2022/08/29 06:49:33;;;;;;;;;;;16.10;99.90;;;;;;5122941;27;19916;-53
2022/08/29 06:52:13;;;;;;;;;;;16.30;99.90;;;;;;5127314;27;19918;-52
2022/08/29 06:54:52;;;;;;;;;;;16.40;99.90;;;;;;5147383;27;19933;-52
2022/08/29 06:57:32;;;;;;;;;;;16.50;99.90;;;;;;5091879;27;19912;-52
2022/08/29 07:00:14;;;;;;;;;;;16.50;99.90;;;;;;5119696;27;19916;-53
2022/08/29 07:02:54;;;;;;;;;;;16.60;99.90;;;;;;5106204;27;19953;-52
2022/08/29 07:05:34;;;;;;;;;;;16.70;99.90;;;;;;5108329;27;19913;-51
2022/08/29 07:08:13;;;;;;;;;;;16.80;99.90;;;;;;5106544;27;19920;-51
2022/08/29 07:10:53;;;;;;;;;;;17.00;99.90;;;;;;5111108;27;19926;-53
2022/08/29 07:13:34;;;;;;;;;;;17.10;99.90;;;;;;5122530;27;19919;-53
2022/08/29 07:16:15;;;;;;;;;;;17.20;99.90;;;;;;5102954;27;19985;-53
2022/08/29 07:18:56;;;;;;;;;;;17.30;99.90;;;;;;5126533;27;19925;-52
2022/08/29 07:21:36;;;;;;;;;;;17.40;99.90;;;;;;5126081;27;19926;-52
2022/08/29 07:24:15;;;;;;;;;;;17.40;99.90;;;;;;5126079;27;19912;-51
2022/08/29 07:26:55;;;;;;;;;;;17.40;99.90;;;;;;5116322;27;19919;-51
2022/08/29 07:29:35;;;;;;;;;;;17.50;99.90;;;;;;5126496;27;19912;-53
2022/08/29 07:32:15;;;;;;;;;;;17.60;99.90;;;;;;5126525;27;19912;-52
2022/08/29 07:34:55;;;;;;;;;;;17.70;99.90;;;;;;5126669;27;19918;-53
2022/08/29 07:37:34;;;;;;;;;;;17.90;99.90;;;;;;5111492;27;19918;-52
2022/08/29 07:40:16;;;;;;;;;;;17.90;99.90;;;;;;5126903;27;19911;-53
2022/08/29 07:42:56;;;;;;;;;;;18.00;99.90;;;;;;5106447;27;19912;-52
2022/08/29 07:45:37;;;;;;;;;;;18.00;99.90;;;;;;5126782;27;19912;-52
2022/08/29 07:48:17;;;;;;;;;;;18.10;99.90;;;;;;5168513;27;19911;-53
2022/08/29 07:50:57;;;;;;;;;;;18.20;99.90;;;;;;5126676;27;19911;-52
2022/08/29 07:53:37;;;;;;;;;;;18.30;99.90;;;;;;5156435;27;19915;-53
2022/08/29 07:56:18;;;;;;;;;;;18.40;99.90;;;;;;5123393;27;19916;-51
2022/08/29 07:58:58;;;;;;;;;;;18.40;99.90;;;;;;5127577;27;19912;-51
2022/08/29 08:01:40;;;;;;;;;;;18.60;99.90;;;;;;5127328;27;19911;-51
2022/08/29 08:04:19;;;;;;;;;;;18.70;99.90;;;;;;5127236;27;19912;-52
2022/08/29 08:06:59;;;;;;;;;;;18.80;99.90;;;;;;5117192;27;20419;-51
2022/08/29 08:09:39;;;;;;;;;;;18.90;99.90;;;;;;5106096;27;19926;-52
2022/08/29 08:12:19;;;;;;;;;;;18.90;99.90;;;;;;5106914;27;19912;-52
2022/08/29 08:14:59;;;;;;;;;;;19.10;99.90;;;;;;5127278;27;19945;-52
2022/08/29 08:17:40;;;;;;;;;;;19.20;99.90;;;;;;5127226;27;19918;-52
2022/08/29 08:20:20;;;;;;;;;;;19.30;99.90;;;;;;5126783;27;19912;-51
2022/08/29 08:23:00;;;;;;;;;;;19.40;99.90;;;;;;5152934;27;19918;-52
2022/08/29 08:25:39;;;;;;;;;;;19.70;99.90;;;;;;5126949;27;19918;-52
2022/08/29 08:28:19;;;;;;;;;;;19.90;99.90;;;;;;5106932;27;20423;-52
2022/08/29 08:30:59;;;;;;;;;;;20.20;99.90;;;;;;5126746;27;19912;-52
2022/08/29 08:33:39;;;;;;;;;;;20.40;99.90;;;;;;5106340;27;19919;-53
2022/08/29 08:36:24;;;;;;;;;;;20.70;99.90;;;;;;5122437;27;20321;-52
2022/08/29 08:39:04;;;;;;;;;;;21.00;99.90;;;;;;5126546;27;19918;-52
2022/08/29 08:41:55;;;;;;;;;;;21.30;99.90;;;;;;5074464;28;20258;-53
2022/08/29 08:44:43;;;;;;;;;;;21.00;99.90;;;;;;5112292;27;19912;-52
2022/08/29 08:47:25;;;;;;;;;;;20.60;99.90;;;;;;5112536;27;19926;-53
2022/08/29 08:50:08;;;;;;;;;;;20.30;99.90;;;;;;5126666;27;19918;-53
2022/08/29 08:52:52;;;;;;;;;;;20.40;99.90;;;;;;5126509;27;19916;-52
2022/08/29 08:55:38;;;;;;;;;;;20.50;99.90;;;;;;5126661;27;20331;-53
2022/08/29 08:58:23;;;;;;;;;;;20.60;99.90;;;;;;5106086;27;19912;-53
2022/08/29 09:01:09;;;;;;;;;;;20.70;99.90;;;;;;5105372;27;19939;-53
2022/08/29 09:03:56;;;;;;;;;;;20.80;99.90;;;;;;5126588;27;19922;-53
2022/08/29 09:06:45;;;;;;;;;;;20.80;99.90;;;;;;5099519;27;19954;-53
2022/08/29 09:09:29;;;;;;;;;;;20.80;99.90;;;;;;5126545;27;20006;-54
2022/08/29 09:12:15;;;;;;;;;;;20.90;99.90;;;;;;5127298;27;19911;-53
2022/08/29 09:15:01;;;;;;;;;;;21.10;99.90;;;;;;5106527;27;19954;-53
2022/08/29 09:17:44;;;;;;;;;;;21.30;99.90;;;;;;5111292;27;19918;-53
2022/08/29 09:20:27;;;;;;;;;;;21.40;99.90;;;;;;5126498;27;19912;-51
2022/08/29 09:23:11;;;;;;;;;;;21.50;99.90;;;;;;5127005;27;20388;-52
2022/08/29 09:25:52;;;;;;;;;;;21.60;99.90;;;;;;5126610;27;20248;-52
2022/08/29 09:28:32;;;;;;;;;;;21.70;99.90;;;;;;5085732;28;19919;-52
2022/08/29 09:31:16;;;;;;;;;;;21.90;99.90;;;;;;5126982;27;19911;-54
2022/08/29 09:33:57;;;;;;;;;;;22.00;99.90;;;;;;5106312;27;19927;-52
2022/08/29 09:36:40;;;;;;;;;;;22.00;99.90;;;;;;5119949;27;19912;-53
2022/08/29 09:39:22;;;;;;;;;;;22.20;99.90;;;;;;5127002;27;19918;-52
2022/08/29 09:42:18;;;;;;;;;;;22.40;99.90;;;;;;5127130;27;20328;-52
2022/08/29 09:44:59;;;;;;;;;;;22.50;99.90;;;;;;5126992;27;20308;-52
2022/08/29 09:47:39;;;;;;;;;;;22.80;99.90;;;;;;5091100;27;19919;-52
2022/08/29 09:50:24;;;;;;;;;;;23.00;99.90;;;;;;5106440;27;20356;-52
2022/08/29 09:53:04;;;;;;;;;;;23.00;99.90;;;;;;5126910;27;20399;-52
2022/08/29 09:55:44;;;;;;;;;;;23.00;99.90;;;;;;5126547;27;19926;-53
2022/08/29 09:58:29;;;;;;;;;;;23.10;99.90;;;;;;5106282;27;20343;-54
2022/08/29 10:01:11;;;;;;;;;;;23.10;99.90;;;;;;5126757;27;19912;-52
2022/08/29 10:03:54;;;;;;;;;;;23.30;99.90;;;;;;5145940;27;19918;-53
2022/08/29 10:06:38;;;;;;;;;;;23.30;99.90;;;;;;5120208;27;19936;-52
2022/08/29 10:09:26;;;;;;;;;;;23.30;99.90;;;;;;5105976;27;20407;-52
2022/08/29 10:12:09;;;;;;;;;;;23.40;99.90;;;;;;5126901;27;20379;-51
2022/08/29 10:14:53;;;;;;;;;;;23.40;99.90;;;;;;5126907;27;20286;-52
2022/08/29 10:20:44;;;;;;;;;;;23.50;99.90;;;;;;5126572;27;19918;-52
2022/08/29 10:23:28;;;;;;;;;;;23.50;99.90;;;;;;5127045;27;19922;-54
2022/08/29 10:26:16;;;;;;;;;;;23.50;99.90;;;;;;5103567;27;19926;-52
2022/08/29 10:29:00;;;;;;;;;;;23.50;99.90;;;;;;5106161;27;19912;-53
2022/08/29 10:31:43;;;;;;;;;;;23.60;99.90;;;;;;5155818;27;20369;-51
2022/08/29 10:34:31;;;;;;;;;;;23.90;99.90;;;;;;5107851;27;19916;-53
2022/08/29 10:37:19;;;;;;;;;;;24.00;99.90;;;;;;5094904;27;20131;-53
2022/08/29 10:40:03;;;;;;;;;;;24.10;99.90;;;;;;5121004;27;19922;-53
2022/08/29 10:42:44;;;;;;;;;;;24.30;99.90;;;;;;5124541;27;20225;-53
2022/08/29 10:45:28;;;;;;;;;;;24.40;99.60;;;;;;5099591;27;19938;-52
2022/08/29 10:48:12;;;;;;;;;;;24.60;95.40;;;;;;5110996;27;19920;-52
2022/08/29 10:50:58;;;;;;;;;;;24.60;91.00;;;;;;5125404;27;19920;-53
2022/08/29 10:53:40;;;;;;;;;;;24.60;89.00;;;;;;5093273;27;20336;-52
2022/08/29 10:56:22;;;;;;;;;;;24.50;83.20;;;;;;5121567;27;19912;-53
2022/08/29 10:59:08;;;;;;;;;;;24.60;81.60;;;;;;5120021;27;19922;-53
2022/08/29 11:01:52;;;;;;;;;;;24.20;81.90;;;;;;5102843;27;20397;-54
2022/08/29 11:04:35;;;;;;;;;;;24.10;86.50;;;;;;5121234;27;20181;-53
2022/08/29 11:07:17;;;;;;;;;;;24.20;92.60;;;;;;5085404;28;20320;-53
2022/08/29 11:09:59;;;;;;;;;;;24.70;84.20;;;;;;5125805;27;19919;-52
2022/08/29 11:12:44;;;;;;;;;;;25.20;83.00;;;;;;5124486;27;19916;-52
2022/08/29 11:15:26;;;;;;;;;;;25.80;73.80;;;;;;5113646;27;19920;-52
2022/08/29 11:18:11;;;;;;;;;;;26.20;69.40;;;;;;5115961;27;19924;-51
2022/08/29 11:20:56;;;;;;;;;;;26.30;67.20;;;;;;5115586;27;19916;-54
2022/08/29 11:23:38;;;;;;;;;;;26.30;63.80;;;;;;5118844;27;20407;-53
2022/08/29 11:26:23;;;;;;;;;;;25.90;62.60;;;;;;5118955;27;19923;-53
2022/08/29 11:29:09;;;;;;;;;;;25.70;66.00;;;;;;5114795;27;19916;-54
2022/08/29 11:31:53;;;;;;;;;;;25.50;67.80;;;;;;5123173;27;19919;-53
2022/08/29 11:34:39;;;;;;;;;;;25.20;68.60;;;;;;5120354;27;20347;-53
2022/08/29 11:37:36;;;;;;;;;;;25.00;70.30;;;;;;5112745;27;19918;-53
2022/08/29 11:40:21;;;;;;;;;;;24.60;73.80;;;;;;5116538;27;19922;-53
2022/08/29 11:43:03;;;;;;;;;;;24.20;78.40;;;;;;5120767;27;19922;-53
2022/08/29 11:45:43;;;;;;;;;;;23.80;80.00;;;;;;5098702;27;19939;-52
2022/08/29 11:48:32;;;;;;;;;;;23.50;81.70;;;;;;5121836;27;19926;-52
2022/08/29 11:51:29;;;;;;;;;;;23.20;79.90;;;;;;5111825;27;19916;-54
2022/08/29 11:54:41;;;;;;;;;;;23.10;80.50;;;;;;5116761;27;19922;-54
2022/08/29 11:57:35;;;;;;;;;;;23.40;80.30;;;;;;5109907;27;20170;-52
2022/08/29 12:00:27;;;;;;;;;;;23.90;79.50;;;;;;5120130;27;20373;-53
2022/08/29 12:03:27;;;;;;;;;;;24.30;72.10;;;;;;5102133;27;19916;-52
2022/08/29 12:06:14;;;;;;;;;;;24.60;75.10;;;;;;5099893;27;20345;-54
2022/08/29 12:08:56;;;;;;;;;;;25.00;68.80;;;;;;5105457;27;19912;-54
2022/08/29 12:11:56;;;;;;;;;;;25.30;72.50;;;;;;5118722;27;19922;-53
2022/08/29 12:14:36;;;;;;;;;;;25.60;64.40;;;;;;5113888;27;19916;-53
2022/08/29 12:17:34;;;;;;;;;;;25.90;62.00;;;;;;5095592;27;19986;-52
2022/08/29 12:20:16;;;;;;;;;;;26.00;63.20;;;;;;5122786;27;20282;-53
2022/08/29 12:23:00;;;;;;;;;;;26.20;64.20;;;;;;5120735;27;19942;-54
2022/08/29 12:25:45;;;;;;;;;;;26.50;60.50;;;;;;5119649;27;19919;-53
2022/08/29 12:28:33;;;;;;;;;;;26.60;58.30;;;;;;5102192;27;19961;-52
2022/08/29 12:31:16;;;;;;;;;;;26.80;59.10;;;;;;5098344;27;19920;-52
2022/08/29 12:34:06;;;;;;;;;;;27.10;60.30;;;;;;5120542;27;19922;-54
2022/08/29 12:36:54;;;;;;;;;;;27.50;55.80;;;;;;5109894;27;20321;-54
2022/08/29 12:39:53;;;;;;;;;;;27.50;55.40;;;;;;5100055;27;19930;-53
2022/08/29 12:42:38;;;;;;;;;;;27.40;55.70;;;;;;5111277;27;19920;-53
2022/08/29 12:45:22;;;;;;;;;;;27.10;54.70;;;;;;5133052;27;20391;-53
2022/08/29 12:48:05;;;;;;;;;;;26.80;58.50;;;;;;5062959;27;20083;-54
2022/08/29 12:50:49;;;;;;;;;;;26.50;58.20;;;;;;5117209;27;19928;-52
2022/08/29 12:53:32;;;;;;;;;;;26.10;57.40;;;;;;5096912;27;19920;-53
2022/08/29 12:56:17;;;;;;;;;;;25.80;59.30;;;;;;5089250;27;19912;-52
2022/08/29 12:58:58;;;;;;;;;;;25.90;58.10;;;;;;5079709;28;19916;-52
2022/08/29 13:01:39;;;;;;;;;;;26.00;56.40;;;;;;5113339;27;20312;-52
2022/08/29 13:04:20;;;;;;;;;;;26.10;58.30;;;;;;5100437;27;19958;-53
2022/08/29 13:07:02;;;;;;;;;;;26.20;59.50;;;;;;5125522;27;20312;-52
2022/08/29 13:09:43;;;;;;;;;;;26.10;57.50;;;;;;5112661;27;19920;-53
2022/08/29 13:12:25;;;;;;;;;;;26.00;55.90;;;;;;5081606;28;19917;-52
2022/08/29 13:15:06;;;;;;;;;;;25.80;56.50;;;;;;5112938;27;19943;-53
2022/08/29 13:17:48;;;;;;;;;;;25.60;57.80;;;;;;5083833;27;19916;-54
2022/08/29 13:20:45;;;;;;;;;;;25.70;55.50;;;;;;5120473;27;19919;-53
2022/08/29 13:23:27;;;;;;;;;;;25.70;55.50;;;;;;5144231;27;19915;-53
2022/08/29 13:26:18;;;;;;;;;;;25.70;55.90;;;;;;5123916;27;19911;-52
2022/08/29 13:28:59;;;;;;;;;;;25.80;57.40;;;;;;5098095;27;19930;-52
2022/08/29 13:31:40;;;;;;;;;;;26.00;55.40;;;;;;5101348;27;19916;-53
2022/08/29 13:34:21;;;;;;;;;;;26.20;54.30;;;;;;5136277;27;19915;-52
2022/08/29 13:37:05;;;;;;;;;;;26.40;57.80;;;;;;5113346;27;19916;-52
2022/08/29 13:39:47;;;;;;;;;;;26.60;52.40;;;;;;5106691;27;19920;-55
2022/08/29 13:42:30;;;;;;;;;;;26.80;51.20;;;;;;5122577;27;19920;-52
2022/08/29 13:45:12;;;;;;;;;;;27.00;50.20;;;;;;5098535;27;19916;-53
2022/08/29 13:47:56;;;;;;;;;;;27.20;49.40;;;;;;5098125;27;19930;-53
2022/08/29 13:50:37;;;;;;;;;;;27.20;49.00;;;;;;5120839;27;19916;-55
2022/08/29 13:53:18;;;;;;;;;;;27.30;49.50;;;;;;5126550;27;20548;-53
2022/08/29 13:55:57;;;;;;;;;;;27.10;49.60;;;;;;5125313;27;19920;-53
2022/08/29 13:58:37;;;;;;;;;;;26.90;48.60;;;;;;5124019;27;19915;-52
2022/08/29 14:01:22;;;;;;;;;;;26.70;49.90;;;;;;5110047;27;19913;-53
2022/08/29 14:04:03;;;;;;;;;;;26.90;50.70;;;;;;5126339;27;19912;-53
2022/08/29 14:06:43;;;;;;;;;;;27.00;50.20;;;;;;5117088;27;19923;-53
2022/08/29 14:09:26;;;;;;;;;;;26.90;51.00;;;;;;5122179;27;19919;-53
2022/08/29 14:12:06;;;;;;;;;;;26.70;49.80;;;;;;5106041;27;19920;-53
2022/08/29 14:14:57;;;;;;;;;;;26.50;49.80;;;;;;5126633;27;19918;-53
2022/08/29 14:17:38;;;;;;;;;;;26.30;48.90;;;;;;5066383;28;20284;-53
2022/08/29 14:20:19;;;;;;;;;;;26.30;50.10;;;;;;5121293;27;19915;-53
2022/08/29 14:22:58;;;;;;;;;;;26.30;51.20;;;;;;5080712;28;19922;-53
2022/08/29 14:25:38;;;;;;;;;;;26.20;50.20;;;;;;5114826;27;19916;-53
2022/08/29 14:28:18;;;;;;;;;;;26.10;50.40;;;;;;5105380;27;20317;-54
2022/08/29 14:30:58;;;;;;;;;;;26.30;50.20;;;;;;5106035;27;19912;-53
2022/08/29 14:33:38;;;;;;;;;;;26.40;51.10;;;;;;5128146;27;19911;-53
2022/08/29 14:36:18;;;;;;;;;;;26.60;49.70;;;;;;5117428;27;19919;-54
2022/08/29 14:38:57;;;;;;;;;;;26.40;49.50;;;;;;5125518;27;19916;-53
2022/08/29 14:41:37;;;;;;;;;;;26.30;49.90;;;;;;5099822;27;20332;-53
2022/08/29 14:44:17;;;;;;;;;;;26.40;52.10;;;;;;5126440;27;20308;-53
2022/08/29 14:46:57;;;;;;;;;;;26.50;49.10;;;;;;5121049;27;19916;-54
2022/08/29 14:49:37;;;;;;;;;;;26.30;49.50;;;;;;5087740;27;19934;-53
2022/08/29 14:52:17;;;;;;;;;;;26.00;51.30;;;;;;5127021;27;19915;-53
2022/08/29 14:54:56;;;;;;;;;;;26.00;50.70;;;;;;5126211;27;19919;-53
2022/08/29 14:57:36;;;;;;;;;;;26.20;52.30;;;;;;5107438;27;19939;-53
2022/08/29 15:00:18;;;;;;;;;;;26.40;52.00;;;;;;5103599;27;19934;-53
2022/08/29 15:02:58;;;;;;;;;;;26.30;52.30;;;;;;5119768;27;19922;-53
2022/08/29 15:05:39;;;;;;;;;;;26.30;51.50;;;;;;5105666;27;19916;-54
2022/08/29 15:08:19;;;;;;;;;;;26.40;50.10;;;;;;5105845;27;19926;-53
2022/08/29 15:10:58;;;;;;;;;;;26.30;48.70;;;;;;5126044;27;19918;-53
2022/08/29 15:13:38;;;;;;;;;;;26.20;49.90;;;;;;5126726;27;19915;-54
2022/08/29 15:16:18;;;;;;;;;;;26.20;51.60;;;;;;5122734;27;19916;-54
2022/08/29 15:18:58;;;;;;;;;;;26.40;50.10;;;;;;5124531;27;20385;-53
2022/08/29 15:21:38;;;;;;;;;;;26.50;48.70;;;;;;5125737;27;19912;-53
2022/08/29 15:24:18;;;;;;;;;;;26.60;50.10;;;;;;5105189;27;19916;-53
2022/08/29 15:26:58;;;;;;;;;;;26.40;49.10;;;;;;5101135;27;19916;-53
2022/08/29 15:29:39;;;;;;;;;;;26.10;49.60;;;;;;5125821;27;19912;-53
2022/08/29 15:32:19;;;;;;;;;;;26.00;52.30;;;;;;5126808;27;19912;-52
2022/08/29 15:34:59;;;;;;;;;;;25.80;52.80;;;;;;5123670;27;19923;-53
2022/08/29 15:37:38;;;;;;;;;;;25.80;51.30;;;;;;5120263;27;19923;-53
2022/08/29 15:40:19;;;;;;;;;;;25.80;53.60;;;;;;5108732;27;19912;-53
2022/08/29 15:42:58;;;;;;;;;;;25.80;52.40;;;;;;5098522;27;19930;-53
2022/08/29 15:45:38;;;;;;;;;;;25.80;51.60;;;;;;5143187;27;19919;-53